Vinings, Georgia
Current Conditions -  °F | °C
As of 10:58 AM on Sunday 23 Nov 2014 (Local Time) from KMGE Reporting Station
Light Rain Light Rain  
Wind Chill:   Ceiling: 500
Heat Index:   Visibility: 2.5mi
Dew Point:   Wind: 10mph
Humidity: 99%   Direction: 90°E
Pressure: 29.98"   Gusts: NA
Location:  33.87°N, 84.47°W
Report Text: KMGE 231558Z 09009KT 2 1/2SM -RA BR OVC005 09/09 A2998 RMK AO2A SLP153 P0005 T00940093 $
Loading
Personal Weather Stations






























Interactive Weather Map New forecast layout! Learn more

10-Day Weather Forecast

Advertisements
Track Severe Weather on mobile